METAR AND TAF INFORMATION
METAR FOR EGGD
ADDS - METARS form results

(2315 UTC 16 June 2019)
Data provider http://aviationweather.gov/metar/data/
 
METAR text: EGGD 162250Z AUTO 19011KT 9999 FEW009 OVC028 13/11 Q1016
Conditions at: EGGD (BRISTOL/LULSGATE, GB) observed 2250 UTC 16 June 2019
Temperature: 13.0°C (55°F)
Dewpoint: 11.0°C (52°F) [RH = 88%]
Pressure (altimeter): 30.00 inches Hg (1016.0 mb)
Winds: from the S (190 degrees) at 13 MPH (11 knots; 5.7 m/s)
Visibility: 6 or more miles (10+ km)
Ceiling: 2800 feet AGL
Clouds: few clouds at 900 feet AGL
overcast cloud deck at 2800 feet AGL
Weather: no significant weather observed at this time

METAR text: EGGD 162220Z AUTO 19011KT 160V220 9999 BKN008 BKN013 BKN017 13/11 Q1017
Conditions at: EGGD (BRISTOL/LULSGATE, GB) observed 2220 UTC 16 June 2019
Temperature: 13.0°C (55°F)
Dewpoint: 11.0°C (52°F) [RH = 88%]
Pressure (altimeter): 30.03 inches Hg (1017.0 mb)
Winds: from the S (190 degrees) at 13 MPH (11 knots; 5.7 m/s)
Visibility: 6 or more miles (10+ km)
Ceiling: 800 feet AGL
Clouds: broken clouds at 800 feet AGL
broken clouds at 1300 feet AGL
broken clouds at 1700 feet AGL
Weather: no significant weather observed at this time

Forecast for: EGGD (BRISTOL/LULSGATE, GB)
Text: TAF EGGD 162253Z 1700/1724 19012KT 9999 FEW006
Forecast period: 0000 UTC 17 June 2019 to 0000 UTC 18 June 2019
Forecast type: FROM: standard forecast or significant change
Winds: from the S (190 degrees) at 14 MPH (12 knots; 6.2 m/s)
Visibility: 6 or more miles 10+ km)
Ceiling: at least 12,000 feet AGL
Clouds: few clouds at 600 feet AGL
Weather: no significant weather forecast for this period
Text: TEMPO 1700/1708 BKN006
Forecast period: 0000 to 0800 UTC 17 June 2019
Forecast type: TEMPORARY: The following changes expected for less than half the time period
Visibility: missing
Ceiling: 600 feet AGL
Clouds: broken clouds at 600 feet AGL
Weather: no significant weather forecast for this period
Text: PROB30
Forecast period: 1200 UTC 17 June 2019 to 0000 UTC 18 June 2019
Forecast type: TEMPORARY: The following changes expected for less than half the time period
Visibility: 5 miles (8 km)
Ceiling: 1400 feet AGL
Clouds: broken clouds at 1400 feet AGL
Weather: -SHRA -RA -DZ  (light rain showers, light rain, light drizzle)

 AIRPORT MAP

 RUNWAY INFORMATION
Runway 09 Runway length 6598 ft Runway width 151 ft
Runway elevation 613 ft Runway displaced threshold 0 ft Runway heading 86
Runway 27 Runway length 6598 ft Runway width 151 ft
Runway elevation 601 ft Runway displaced threshold 443 ft Runway heading 266

 AIRPORT FREQUENCIES
Type ATIS Name ATIS Frequency 126.025 MHZ
Type GND Name GND Frequency 121.925 MHZ
Type RDR Name RDR Frequency 136.075 MHZ
Type TWR Name TWR Frequency 133.85 MHZ

 AIRPORT NEAR NAVIGATION AIDS
Type NDB Name Bristol Frequency 414 KHZ